EGPI/ILY METAR and TAF weather

Enter ICAO airport designator
Station Type Date Time Source
EGPI METAR 2022/05/24 12:20 UTC NOAA

EGPI 241220Z AUTO 28016KT 9999 FEW016/// 13/10 Q1003


Station Type Date Time Source
EGPI Decoded METAR 2022/05/24 12:20 UTC NOAA

Islay, United Kingdom (EGPI) 55-40-55N 006-15-24W
May 24, 2022 - 08:20 AM EDT / 2022.05.24 1220 UTC
Wind: from the W (280 degrees) at 18 MPH (16 KT):0
Visibility: greater than 7 mile(s):0
Sky conditions: mostly clear
Temperature: 55 F (13 C)
Dew Point: 50 F (10 C)
Relative Humidity: 81%
Pressure (altimeter): 29.62 in. Hg (1003 hPa)
ob: EGPI 241220Z AUTO 28016KT 9999 FEW016/// 13/10 Q1003
cycle: 12

Station Type Date Time Source
EGPI TAF UTC NOAA

Error!

Example: see airport list